Time,TemperatureF,DewpointF,PressureIn,WindDirection,WindDirectionDegrees,WindSpeedMPH,WindSpeedGustMPH,Humidity,HourlyPrecipIn,Conditions,Clouds,dailyrainin,SoftwareType,DateUTC
2013-09-21 00:01:00,62.2,35.7,29.15,West,262,5.4,5.4,37,0.00,,---,0.00,VWS V14.01,2013-09-21 07:01:00,
2013-09-21 00:06:00,62.1,35.5,29.15,WNW,284,5.8,6.7,37,0.00,,---,0.00,VWS V14.01,2013-09-21 07:06:00,
2013-09-21 00:11:00,62.1,36.2,29.15,West,266,4.9,4.9,38,0.00,,---,0.00,VWS V14.01,2013-09-21 07:11:00,
2013-09-21 00:16:00,61.9,36.0,29.15,West,280,4.5,5.8,38,0.00,,---,0.00,VWS V14.01,2013-09-21 07:16:00,
2013-09-21 00:21:00,61.9,36.0,29.15,NW,320,4.9,5.4,38,0.00,,---,0.00,VWS V14.01,2013-09-21 07:21:00,
2013-09-21 00:26:00,61.9,35.3,29.15,WNW,283,3.1,3.6,37,0.00,,---,0.00,VWS V14.01,2013-09-21 07:26:00,
2013-09-21 00:31:00,61.5,35.7,29.15,WNW,297,4.5,5.8,38,0.00,,---,0.00,VWS V14.01,2013-09-21 07:31:00,
2013-09-21 00:36:00,61.7,35.9,29.15,West,277,6.3,6.3,38,0.00,,---,0.00,VWS V14.01,2013-09-21 07:36:00,
2013-09-21 00:41:00,61.9,36.0,29.15,WSW,258,4.5,6.7,38,0.00,,---,0.00,VWS V14.01,2013-09-21 07:41:00,
2013-09-21 00:46:00,61.7,35.2,29.15,West,277,4.5,4.5,37,0.00,,---,0.00,VWS V14.01,2013-09-21 07:46:00,
2013-09-21 00:51:00,61.5,35.0,29.15,WSW,256,5.8,5.8,37,0.00,,---,0.00,VWS V14.01,2013-09-21 07:51:00,
2013-09-21 00:56:00,61.7,35.9,29.15,West,263,4.9,6.3,38,0.00,,---,0.00,VWS V14.01,2013-09-21 07:56:00,
2013-09-21 01:01:00,61.9,35.3,29.15,WSW,243,6.3,6.3,37,0.00,,---,0.00,VWS V14.01,2013-09-21 08:01:00,
2013-09-21 01:06:00,61.7,34.5,29.15,SW,234,3.6,3.6,36,0.00,,---,0.00,VWS V14.01,2013-09-21 08:06:00,
2013-09-21 01:11:00,61.7,35.2,29.15,SW,215,4.5,4.5,37,0.00,,---,0.00,VWS V14.01,2013-09-21 08:11:00,
2013-09-21 01:16:00,61.9,35.3,29.15,SW,235,3.1,3.1,37,0.00,,---,0.00,VWS V14.01,2013-09-21 08:16:00,
2013-09-21 01:21:00,62.2,35.0,29.15,South,188,3.1,3.1,36,0.00,,---,0.00,VWS V14.01,2013-09-21 08:21:00,
2013-09-21 01:26:00,62.8,35.5,29.15,SW,214,5.4,5.4,36,0.00,,---,0.00,VWS V14.01,2013-09-21 08:26:00,
2013-09-21 01:31:00,63.0,34.9,29.15,West,271,4.0,4.5,35,0.00,,---,0.00,VWS V14.01,2013-09-21 08:31:00,
2013-09-21 01:36:00,62.8,34.8,29.15,SW,217,3.1,3.1,35,0.00,,---,0.00,VWS V14.01,2013-09-21 08:36:00,
2013-09-21 01:41:00,62.8,34.8,29.15,SW,215,5.8,5.8,35,0.00,,---,0.00,VWS V14.01,2013-09-21 08:41:00,
2013-09-21 01:46:00,62.8,34.8,29.15,WSW,246,2.7,3.6,35,0.00,,---,0.00,VWS V14.01,2013-09-21 08:46:00,
2013-09-21 01:51:00,62.4,34.4,29.15,WSW,257,8.3,8.3,35,0.00,,---,0.00,VWS V14.01,2013-09-21 08:51:00,
2013-09-21 01:56:00,62.4,35.1,29.15,West,266,8.3,8.7,36,0.00,,---,0.00,VWS V14.01,2013-09-21 08:56:00,
2013-09-21 02:01:00,62.6,34.6,29.15,West,278,6.9,7.4,35,0.00,,---,0.00,VWS V14.01,2013-09-21 09:01:00,
2013-09-21 02:06:00,62.2,34.3,29.15,WSW,238,5.8,6.3,35,0.00,,---,0.00,VWS V14.01,2013-09-21 09:06:00,
2013-09-21 02:11:00,62.1,34.1,29.15,SW,233,4.0,4.9,35,0.00,,---,0.00,VWS V14.01,2013-09-21 09:11:00,
2013-09-21 02:16:00,62.1,34.1,29.15,SSW,209,0.0,4.0,35,0.00,,---,0.00,VWS V14.01,2013-09-21 09:16:00,
2013-09-21 02:22:00,61.9,34.7,29.15,SSW,209,0.0,0.0,36,0.00,,---,0.00,VWS V14.01,2013-09-21 09:22:00,
2013-09-21 02:27:00,61.7,34.5,29.12,SSW,209,0.0,0.0,36,0.00,,---,0.00,VWS V14.01,2013-09-21 09:27:00,
2013-09-21 02:32:00,61.2,34.0,29.12,SSW,209,0.0,0.0,36,0.00,,---,0.00,VWS V14.01,2013-09-21 09:32:00,
2013-09-21 02:38:00,60.8,35.1,29.12,SSW,209,3.1,4.5,38,0.00,,---,0.00,VWS V14.01,2013-09-21 09:38:00,
2013-09-21 02:43:00,60.6,34.9,29.12,SE,144,4.0,4.5,38,0.00,,---,0.00,VWS V14.01,2013-09-21 09:43:00,
2013-09-21 02:48:00,60.8,35.7,29.12,SSE,164,3.6,4.5,39,0.00,,---,0.00,VWS V14.01,2013-09-21 09:48:00,
2013-09-21 02:53:00,60.3,34.6,29.12,SSE,164,0.0,0.0,38,0.00,,---,0.00,VWS V14.01,2013-09-21 09:53:00,
2013-09-21 02:58:00,59.9,34.9,29.12,SSE,164,0.0,0.0,39,0.00,,---,0.00,VWS V14.01,2013-09-21 09:58:00,
2013-09-21 03:03:00,59.5,33.9,29.12,SSE,164,0.0,2.7,38,0.00,,---,0.00,VWS V14.01,2013-09-21 10:03:00,
2013-09-21 03:08:00,59.2,34.3,29.12,SSE,164,0.0,0.0,39,0.00,,---,0.00,VWS V14.01,2013-09-21 10:08:00,
2013-09-21 03:13:00,58.8,35.8,29.12,SSE,164,0.0,0.0,42,0.00,,---,0.00,VWS V14.01,2013-09-21 10:13:00,
2013-09-21 03:18:00,59.2,36.7,29.12,SSE,151,4.5,4.9,43,0.00,,---,0.00,VWS V14.01,2013-09-21 10:18:00,
2013-09-21 03:23:00,59.7,37.2,29.12,SE,145,0.0,3.6,43,0.00,,---,0.00,VWS V14.01,2013-09-21 10:23:00,
2013-09-21 03:28:00,59.9,36.8,29.12,SE,145,0.0,0.0,42,0.00,,---,0.00,VWS V14.01,2013-09-21 10:28:00,
2013-09-21 03:33:00,60.1,36.9,29.12,SE,145,0.0,2.7,42,0.00,,---,0.00,VWS V14.01,2013-09-21 10:33:00,
2013-09-21 03:38:00,60.1,36.3,29.12,SE,145,0.0,0.0,41,0.00,,---,0.00,VWS V14.01,2013-09-21 10:38:00,
2013-09-21 03:43:00,60.3,35.9,29.12,SE,145,4.0,4.0,40,0.00,,---,0.00,VWS V14.01,2013-09-21 10:43:00,
2013-09-21 03:48:00,60.4,36.0,29.12,SE,145,0.0,0.0,40,0.00,,---,0.00,VWS V14.01,2013-09-21 10:48:00,
2013-09-21 03:53:00,60.6,36.2,29.12,SE,145,0.0,0.0,40,0.00,,---,0.00,VWS V14.01,2013-09-21 10:53:00,
2013-09-21 03:58:00,60.8,36.3,29.12,SE,145,0.0,0.0,40,0.00,,---,0.00,VWS V14.01,2013-09-21 10:58:00,
2013-09-21 04:03:00,61.0,35.9,29.12,SSE,147,0.0,3.6,39,0.00,,---,0.00,VWS V14.01,2013-09-21 11:03:00,
2013-09-21 04:08:00,61.0,35.9,29.12,SSE,147,0.0,0.0,39,0.00,,---,0.00,VWS V14.01,2013-09-21 11:08:00,
2013-09-21 04:13:00,61.2,35.4,29.12,SSE,147,0.0,0.0,38,0.00,,---,0.00,VWS V14.01,2013-09-21 11:13:00,
2013-09-21 04:18:00,61.3,35.5,29.12,SSE,147,0.0,0.0,38,0.00,,---,0.00,VWS V14.01,2013-09-21 11:18:00,
2013-09-21 04:23:00,61.5,35.7,29.12,SSE,147,0.0,0.0,38,0.00,,---,0.00,VWS V14.01,2013-09-21 11:23:00,
2013-09-21 04:28:00,61.7,35.2,29.12,SSE,148,0.0,0.0,37,0.00,,---,0.00,VWS V14.01,2013-09-21 11:28:00,
2013-09-21 04:33:00,61.7,34.5,29.12,SSE,148,0.0,0.0,36,0.00,,---,0.00,VWS V14.01,2013-09-21 11:33:00,
2013-09-21 04:38:00,61.9,34.7,29.12,SSE,148,0.0,0.0,36,0.00,,---,0.00,VWS V14.01,2013-09-21 11:38:00,
2013-09-21 04:43:00,61.9,34.7,29.12,SSE,148,0.0,0.0,36,0.00,,---,0.00,VWS V14.01,2013-09-21 11:43:00,
2013-09-21 04:48:00,61.9,34.7,29.12,SSE,148,0.0,0.0,36,0.00,,---,0.00,VWS V14.01,2013-09-21 11:48:00,
2013-09-21 04:53:00,62.1,34.8,29.12,SSE,148,0.0,0.0,36,0.00,,---,0.00,VWS V14.01,2013-09-21 11:53:00,
2013-09-21 04:58:00,62.2,35.0,29.12,WSW,247,3.6,4.9,36,0.00,,---,0.00,VWS V14.01,2013-09-21 11:58:00,
2013-09-21 05:03:00,62.6,35.3,29.12,West,267,7.4,7.4,36,0.00,,---,0.00,VWS V14.01,2013-09-21 12:03:00,
2013-09-21 05:09:00,63.3,36.6,29.12,West,272,11.0,11.0,37,0.00,,---,0.00,VWS V14.01,2013-09-21 12:09:00,
2013-09-21 05:14:00,63.5,36.8,29.12,WSW,249,7.4,9.2,37,0.00,,---,0.00,VWS V14.01,2013-09-21 12:14:00,
2013-09-21 05:19:00,63.3,37.3,29.12,West,269,7.4,9.2,38,0.00,,---,0.00,VWS V14.01,2013-09-21 12:19:00,
2013-09-21 05:24:00,63.1,37.8,29.12,SW,222,9.2,9.6,39,0.00,,---,0.00,VWS V14.01,2013-09-21 12:24:00,
2013-09-21 05:29:00,63.1,39.7,29.12,WSW,251,7.8,11.0,42,0.00,,---,0.00,VWS V14.01,2013-09-21 12:29:00,
2013-09-21 05:34:00,63.0,40.1,29.12,WSW,243,9.2,11.0,43,0.00,,---,0.00,VWS V14.01,2013-09-21 12:34:00,
2013-09-21 05:39:00,62.8,41.2,29.12,WSW,244,12.1,12.1,45,0.00,,---,0.00,VWS V14.01,2013-09-21 12:39:00,
2013-09-21 05:44:00,62.8,41.2,29.12,WSW,254,10.5,14.3,45,0.00,,---,0.00,VWS V14.01,2013-09-21 12:44:00,
2013-09-21 05:49:00,62.8,41.7,29.12,WSW,247,11.6,13.0,46,0.00,,---,0.00,VWS V14.01,2013-09-21 12:49:00,
2013-09-21 05:54:00,62.6,42.1,29.12,WSW,239,11.6,11.6,47,0.00,,---,0.00,VWS V14.01,2013-09-21 12:54:00,
2013-09-21 05:59:00,62.4,42.5,29.12,WSW,251,8.7,11.2,48,0.00,,---,0.00,VWS V14.01,2013-09-21 12:59:00,
2013-09-21 06:04:00,62.6,43.2,29.12,WSW,239,11.2,11.2,49,0.00,,---,0.00,VWS V14.01,2013-09-21 13:04:00,
2013-09-21 06:09:00,62.6,42.7,29.12,WSW,238,14.3,14.3,48,0.00,,---,0.00,VWS V14.01,2013-09-21 13:09:00,
2013-09-21 06:14:00,62.6,42.7,29.12,WSW,252,8.7,9.2,48,0.00,,---,0.00,VWS V14.01,2013-09-21 13:14:00,
2013-09-21 06:19:00,62.6,42.1,29.12,WSW,243,8.7,8.7,47,0.00,,---,0.00,VWS V14.01,2013-09-21 13:19:00,
2013-09-21 06:24:00,62.8,41.7,29.12,SW,231,11.0,12.1,46,0.00,,---,0.00,VWS V14.01,2013-09-21 13:24:00,
2013-09-21 06:29:00,63.0,41.3,29.12,WSW,255,11.2,11.2,45,0.00,,---,0.00,VWS V14.01,2013-09-21 13:29:00,
2013-09-21 06:34:00,62.8,41.2,29.12,WSW,242,11.2,11.2,45,0.00,,---,0.00,VWS V14.01,2013-09-21 13:34:00,
2013-09-21 06:39:00,62.8,41.2,29.12,SW,236,8.7,8.7,45,0.00,,---,0.00,VWS V14.01,2013-09-21 13:39:00,
2013-09-21 06:44:00,62.6,41.0,29.12,SW,228,10.1,13.0,45,0.00,,---,0.00,VWS V14.01,2013-09-21 13:44:00,
2013-09-21 06:49:00,62.6,41.0,29.12,WSW,245,11.2,13.0,45,0.00,,---,0.00,VWS V14.01,2013-09-21 13:49:00,
2013-09-21 06:54:00,62.6,40.4,29.12,SW,236,8.7,10.5,44,0.00,,---,0.00,VWS V14.01,2013-09-21 13:54:00,
2013-09-21 06:59:00,62.4,40.2,29.15,WSW,240,8.7,12.1,44,0.00,,---,0.00,VWS V14.01,2013-09-21 13:59:00,
2013-09-21 07:05:00,62.6,39.8,29.15,West,261,7.4,7.4,43,0.00,,---,0.00,VWS V14.01,2013-09-21 14:05:00,
2013-09-21 07:10:00,62.8,40.0,29.15,WSW,258,6.7,6.9,43,0.00,,---,0.00,VWS V14.01,2013-09-21 14:10:00,
2013-09-21 07:15:00,62.6,39.2,29.12,WSW,248,5.8,7.4,42,0.00,,---,0.00,VWS V14.01,2013-09-21 14:15:00,
2013-09-21 07:20:00,62.4,38.4,29.12,WSW,248,5.8,8.3,41,0.00,,---,0.00,VWS V14.01,2013-09-21 14:20:00,
2013-09-21 07:25:00,62.4,37.8,29.12,WSW,238,6.3,8.7,40,0.00,,---,0.00,VWS V14.01,2013-09-21 14:25:00,
2013-09-21 07:30:00,62.6,38.0,29.12,SW,220,7.4,7.4,40,0.00,,---,0.00,VWS V14.01,2013-09-21 14:30:00,
2013-09-21 07:35:00,62.6,37.3,29.12,SW,236,6.3,6.7,39,0.00,,---,0.00,VWS V14.01,2013-09-21 14:35:00,
2013-09-21 07:40:00,62.6,37.3,29.15,WSW,249,6.9,6.9,39,0.00,,---,0.00,VWS V14.01,2013-09-21 14:40:00,
2013-09-21 07:45:00,62.6,37.3,29.15,West,263,4.5,6.9,39,0.00,,---,0.00,VWS V14.01,2013-09-21 14:45:00,
2013-09-21 07:50:00,62.4,37.2,29.15,SW,236,10.1,10.1,39,0.00,,---,0.00,VWS V14.01,2013-09-21 14:50:00,
2013-09-21 07:55:00,62.6,36.7,29.15,WSW,257,9.6,11.0,38,0.00,,---,0.00,VWS V14.01,2013-09-21 14:55:00,
2013-09-21 08:00:00,62.8,36.2,29.15,WSW,258,6.9,11.0,37,0.00,,---,0.00,VWS V14.01,2013-09-21 15:00:00,
2013-09-21 08:06:00,63.0,35.6,29.15,West,273,6.3,6.9,36,0.00,,---,0.00,VWS V14.01,2013-09-21 15:06:00,
2013-09-21 08:11:00,63.0,35.6,29.15,WNW,283,5.4,7.4,36,0.00,,---,0.00,VWS V14.01,2013-09-21 15:11:00,
2013-09-21 08:16:00,63.1,35.1,29.15,WSW,250,6.3,7.8,35,0.00,,---,0.00,VWS V14.01,2013-09-21 15:16:00,
2013-09-21 08:21:00,63.5,35.4,29.15,WSW,252,3.6,5.4,35,0.00,,---,0.00,VWS V14.01,2013-09-21 15:21:00,
2013-09-21 08:26:00,63.5,34.7,29.15,WSW,240,5.8,6.9,34,0.00,,---,0.00,VWS V14.01,2013-09-21 15:26:00,
2013-09-21 08:31:00,63.7,34.8,29.15,West,261,6.3,6.7,34,0.00,,---,0.00,VWS V14.01,2013-09-21 15:31:00,
2013-09-21 08:36:00,64.0,35.1,29.15,West,276,6.7,6.9,34,0.00,,---,0.00,VWS V14.01,2013-09-21 15:36:00,
2013-09-21 08:41:00,64.8,35.0,29.15,West,277,7.4,7.4,33,0.00,,---,0.00,VWS V14.01,2013-09-21 15:41:00,
2013-09-21 08:46:00,65.5,34.9,29.15,WSW,258,6.7,8.3,32,0.00,,---,0.00,VWS V14.01,2013-09-21 15:46:00,
2013-09-21 08:51:00,66.2,34.7,29.15,West,266,6.9,6.9,31,0.00,,---,0.00,VWS V14.01,2013-09-21 15:51:00,
2013-09-21 08:56:00,66.7,33.5,29.15,SW,229,6.9,6.9,29,0.00,,---,0.00,VWS V14.01,2013-09-21 15:56:00,
2013-09-21 09:01:00,66.6,32.5,29.15,SW,225,3.1,5.4,28,0.00,,---,0.00,VWS V14.01,2013-09-21 16:01:00,
2013-09-21 09:06:00,66.9,32.8,29.15,WNW,290,3.1,6.9,28,0.00,,---,0.00,VWS V14.01,2013-09-21 16:06:00,
2013-09-21 09:11:00,66.6,31.6,29.15,NW,307,0.0,0.0,27,0.00,,---,0.00,VWS V14.01,2013-09-21 16:11:00,
2013-09-21 09:16:00,66.2,31.3,29.15,WNW,283,0.0,5.8,27,0.00,,---,0.00,VWS V14.01,2013-09-21 16:16:00,
2013-09-21 09:21:00,66.4,32.3,29.15,West,279,4.0,4.0,28,0.00,,---,0.00,VWS V14.01,2013-09-21 16:21:00,
2013-09-21 09:26:00,67.1,32.9,29.15,West,281,4.0,4.0,28,0.00,,---,0.00,VWS V14.01,2013-09-21 16:26:00,
2013-09-21 09:31:00,67.6,31.6,29.15,WSW,247,4.5,6.3,26,0.00,,---,0.00,VWS V14.01,2013-09-21 16:31:00,
2013-09-21 09:36:00,67.1,30.1,29.15,South,183,5.8,5.8,25,0.00,,---,0.00,VWS V14.01,2013-09-21 16:36:00,
2013-09-21 09:41:00,68.0,30.9,29.15,WSW,244,6.7,8.3,25,0.00,,---,0.00,VWS V14.01,2013-09-21 16:41:00,
2013-09-21 09:46:00,69.3,29.9,29.15,South,190,6.7,6.7,23,0.00,,---,0.00,VWS V14.01,2013-09-21 16:46:00,
2013-09-21 09:51:00,69.4,30.1,29.15,SW,230,5.8,6.7,23,0.00,,---,0.00,VWS V14.01,2013-09-21 16:51:00,
2013-09-21 09:56:00,69.6,29.1,29.15,SW,217,7.8,7.8,22,0.00,,---,0.00,VWS V14.01,2013-09-21 16:56:00,
2013-09-21 10:01:00,69.3,28.8,29.15,SSW,213,5.4,9.6,22,0.00,,---,0.00,VWS V14.01,2013-09-21 17:01:00,
2013-09-21 10:06:00,69.1,28.7,29.15,SW,226,7.8,7.8,22,0.00,,---,0.00,VWS V14.01,2013-09-21 17:06:00,
2013-09-21 10:11:00,69.1,25.1,29.12,SW,225,9.6,9.6,19,0.00,,---,0.00,VWS V14.01,2013-09-21 17:11:00,
2013-09-21 10:16:00,69.6,25.6,29.12,South,183,7.8,8.7,19,0.00,,---,0.00,VWS V14.01,2013-09-21 17:16:00,
2013-09-21 10:21:00,69.4,25.4,29.12,SW,236,11.0,11.2,19,0.00,,---,0.00,VWS V14.01,2013-09-21 17:21:00,
2013-09-21 10:26:00,69.4,25.4,29.12,SW,227,11.2,11.2,19,0.00,,---,0.00,VWS V14.01,2013-09-21 17:26:00,
2013-09-21 10:31:00,69.3,25.3,29.12,SW,222,13.0,13.0,19,0.00,,---,0.00,VWS V14.01,2013-09-21 17:31:00,
2013-09-21 10:36:00,69.6,25.6,29.12,SW,231,11.2,11.2,19,0.00,,---,0.00,VWS V14.01,2013-09-21 17:36:00,
2013-09-21 10:42:00,70.0,25.9,29.12,SW,228,12.5,12.5,19,0.00,,---,0.00,VWS V14.01,2013-09-21 17:42:00,
2013-09-21 10:47:00,69.4,25.4,29.12,SSW,212,8.7,10.1,19,0.00,,---,0.00,VWS V14.01,2013-09-21 17:47:00,
2013-09-21 10:52:00,70.0,25.9,29.12,WSW,250,11.2,13.4,19,0.00,,---,0.00,VWS V14.01,2013-09-21 17:52:00,
2013-09-21 10:57:00,70.5,26.3,29.15,WSW,247,9.2,12.5,19,0.00,,---,0.00,VWS V14.01,2013-09-21 17:57:00,
2013-09-21 11:02:00,71.1,22.6,29.15,WSW,240,13.4,13.4,16,0.00,,---,0.00,VWS V14.01,2013-09-21 18:02:00,
2013-09-21 11:07:00,70.3,23.5,29.15,WSW,244,12.5,13.0,17,0.00,,---,0.00,VWS V14.01,2013-09-21 18:07:00,
2013-09-21 11:12:00,70.7,23.8,29.12,West,265,14.8,14.8,17,0.00,,---,0.00,VWS V14.01,2013-09-21 18:12:00,
2013-09-21 11:17:00,70.0,23.2,29.12,SW,232,11.0,13.4,17,0.00,,---,0.00,VWS V14.01,2013-09-21 18:17:00,
2013-09-21 11:22:00,68.7,22.2,29.12,SW,229,11.2,16.3,17,0.00,,---,0.00,VWS V14.01,2013-09-21 18:22:00,
2013-09-21 11:27:00,68.5,22.0,29.12,SW,233,7.8,12.1,17,0.00,,---,0.00,VWS V14.01,2013-09-21 18:27:00,
2013-09-21 11:32:00,68.2,21.7,29.12,SW,233,11.6,13.0,17,0.00,,---,0.00,VWS V14.01,2013-09-21 18:32:00,
2013-09-21 11:37:00,68.7,22.2,29.12,SW,235,10.1,12.1,17,0.00,,---,0.00,VWS V14.01,2013-09-21 18:37:00,
2013-09-21 11:43:00,68.4,21.9,29.12,SW,224,11.0,11.0,17,0.00,,---,0.00,VWS V14.01,2013-09-21 18:43:00,
2013-09-21 11:48:00,68.5,22.0,29.12,SW,224,8.7,13.4,17,0.00,,---,0.00,VWS V14.01,2013-09-21 18:48:00,
2013-09-21 11:54:00,68.2,25.6,29.12,SW,234,13.4,13.9,20,0.00,,---,0.00,VWS V14.01,2013-09-21 18:54:00,
2013-09-21 11:59:00,68.2,25.6,29.15,SW,219,12.1,13.4,20,0.00,,---,0.00,VWS V14.01,2013-09-21 18:59:00,
2013-09-21 12:04:00,68.0,25.5,29.15,SSW,212,12.1,15.9,20,0.00,,---,0.00,VWS V14.01,2013-09-21 19:04:00,
2013-09-21 12:09:00,67.6,25.2,29.15,WSW,238,13.0,14.8,20,0.00,,---,0.00,VWS V14.01,2013-09-21 19:09:00,
2013-09-21 12:14:00,65.7,27.9,29.12,West,259,13.4,15.4,24,0.00,,---,0.00,VWS V14.01,2013-09-21 19:14:00,
2013-09-21 12:19:00,65.3,32.3,29.12,West,266,13.4,13.4,29,0.00,,---,0.00,VWS V14.01,2013-09-21 19:19:00,
2013-09-21 12:24:00,65.3,31.4,29.12,West,263,13.0,13.0,28,0.00,,---,0.00,VWS V14.01,2013-09-21 19:24:00,
2013-09-21 12:29:00,65.1,35.3,29.15,WSW,239,11.2,13.4,33,0.00,,---,0.00,VWS V14.01,2013-09-21 19:29:00,
2013-09-21 12:34:00,64.9,35.9,29.15,WSW,252,9.6,14.8,34,0.00,,---,0.00,VWS V14.01,2013-09-21 19:34:00,
2013-09-21 12:39:00,64.9,37.4,29.15,West,266,9.6,10.1,36,0.00,,---,0.00,VWS V14.01,2013-09-21 19:39:00,
2013-09-21 12:44:00,64.8,37.2,29.15,WSW,258,9.2,9.6,36,0.00,,---,0.00,VWS V14.01,2013-09-21 19:44:00,
2013-09-21 12:49:00,64.8,38.6,29.15,West,261,11.0,11.0,38,0.00,,---,0.00,VWS V14.01,2013-09-21 19:49:00,
2013-09-21 12:54:00,64.0,41.1,29.15,West,264,7.4,13.4,43,0.00,,---,0.00,VWS V14.01,2013-09-21 19:54:00,
2013-09-21 12:59:00,63.3,41.6,29.15,West,270,11.6,11.6,45,0.00,,---,0.00,VWS V14.01,2013-09-21 19:59:00,
2013-09-21 13:04:00,62.4,43.0,29.15,WNW,288,10.1,10.1,49,0.00,,---,0.00,VWS V14.01,2013-09-21 20:04:00,
2013-09-21 13:09:00,61.7,44.4,29.15,West,274,8.3,10.1,53,0.00,,---,0.00,VWS V14.01,2013-09-21 20:09:00,
2013-09-21 13:14:00,61.2,45.8,29.15,West,279,8.3,8.7,57,0.00,,---,0.00,VWS V14.01,2013-09-21 20:14:00,
2013-09-21 13:19:00,60.6,46.2,29.15,West,260,6.9,11.6,59,0.00,,---,0.00,VWS V14.01,2013-09-21 20:19:00,
2013-09-21 13:24:00,60.4,47.4,29.15,West,269,7.4,9.2,62,0.00,,---,0.00,VWS V14.01,2013-09-21 20:24:00,
2013-09-21 13:29:00,60.1,48.3,29.15,West,264,7.8,7.8,65,0.00,,---,0.00,VWS V14.01,2013-09-21 20:29:00,
2013-09-21 13:34:00,59.9,48.9,29.15,WSW,254,8.7,9.2,67,0.00,,---,0.00,VWS V14.01,2013-09-21 20:34:00,
2013-09-21 13:39:00,60.1,50.3,29.15,WSW,248,11.2,11.2,70,0.00,,---,0.00,VWS V14.01,2013-09-21 20:39:00,
2013-09-21 13:44:00,60.3,50.8,29.15,WSW,241,7.4,10.1,71,0.00,,---,0.00,VWS V14.01,2013-09-21 20:44:00,
2013-09-21 13:49:00,60.4,51.8,29.15,WSW,245,7.4,7.4,73,0.00,,---,0.00,VWS V14.01,2013-09-21 20:49:00,
2013-09-21 13:54:00,60.4,51.8,29.15,WSW,250,6.9,8.3,73,0.00,,---,0.00,VWS V14.01,2013-09-21 20:54:00,
2013-09-21 13:59:00,60.6,51.9,29.15,WSW,249,6.9,6.9,73,0.00,,---,0.00,VWS V14.01,2013-09-21 20:59:00,
2013-09-21 14:05:00,60.6,51.9,29.15,WSW,256,7.4,7.4,73,0.00,,---,0.00,VWS V14.01,2013-09-21 21:05:00,
2013-09-21 14:10:00,60.8,52.5,29.15,WSW,252,7.4,7.4,74,0.00,,---,0.00,VWS V14.01,2013-09-21 21:10:00,
2013-09-21 14:15:00,60.8,52.1,29.15,WSW,253,6.3,9.2,73,0.00,,---,0.00,VWS V14.01,2013-09-21 21:15:00,
2013-09-21 14:20:00,61.0,52.7,29.15,SSW,209,7.8,7.8,74,0.00,,---,0.00,VWS V14.01,2013-09-21 21:20:00,
2013-09-21 14:25:00,60.6,51.9,29.15,SW,230,6.7,9.2,73,0.00,,---,0.00,VWS V14.01,2013-09-21 21:25:00,
2013-09-21 14:30:00,60.4,51.0,29.15,SSW,212,7.8,8.3,71,0.00,,---,0.00,VWS V14.01,2013-09-21 21:30:00,
2013-09-21 14:35:00,60.6,50.8,29.15,SW,227,5.8,7.4,70,0.00,,---,0.00,VWS V14.01,2013-09-21 21:35:00,
2013-09-21 14:40:00,61.0,50.4,29.15,SW,220,9.6,9.6,68,0.00,,---,0.00,VWS V14.01,2013-09-21 21:40:00,
2013-09-21 14:45:00,61.0,50.4,29.15,SW,232,10.1,10.1,68,0.00,,---,0.00,VWS V14.01,2013-09-21 21:45:00,
2013-09-21 14:50:00,61.2,50.5,29.15,SSW,210,5.8,7.4,68,0.00,,---,0.00,VWS V14.01,2013-09-21 21:50:00,
2013-09-21 14:55:00,61.7,51.0,29.15,SW,236,10.1,10.1,68,0.00,,---,0.00,VWS V14.01,2013-09-21 21:55:00,
2013-09-21 15:00:00,61.3,48.7,29.15,WSW,240,11.0,12.5,63,0.00,,---,0.00,VWS V14.01,2013-09-21 22:00:00,
2013-09-21 15:06:00,61.2,47.2,29.15,SW,226,8.3,11.2,60,0.00,,---,0.00,VWS V14.01,2013-09-21 22:06:00,
2013-09-21 15:11:00,61.9,47.9,29.15,SW,232,7.8,11.2,60,0.00,,---,0.00,VWS V14.01,2013-09-21 22:11:00,
2013-09-21 15:16:00,62.4,48.4,29.15,West,259,6.9,10.1,60,0.00,,---,0.00,VWS V14.01,2013-09-21 22:16:00,
2013-09-21 15:21:00,62.6,46.2,29.15,WSW,243,9.2,10.5,55,0.00,,---,0.00,VWS V14.01,2013-09-21 22:21:00,
2013-09-21 15:27:00,63.0,43.0,29.15,SW,217,10.5,10.5,48,0.00,,---,0.00,VWS V14.01,2013-09-21 22:27:00,
2013-09-21 15:32:00,62.8,41.7,29.15,West,265,6.7,11.6,46,0.00,,---,0.00,VWS V14.01,2013-09-21 22:32:00,
2013-09-21 15:37:00,62.4,41.4,29.15,West,265,9.2,9.6,46,0.00,,---,0.00,VWS V14.01,2013-09-21 22:37:00,
2013-09-21 15:42:00,62.2,42.9,29.15,WSW,248,9.6,9.6,49,0.00,,---,0.00,VWS V14.01,2013-09-21 22:42:00,
2013-09-21 15:48:00,62.1,44.2,29.15,WSW,250,8.3,9.2,52,0.00,,---,0.00,VWS V14.01,2013-09-21 22:48:00,
2013-09-21 15:53:00,62.1,44.8,29.15,SW,219,9.2,10.1,53,0.00,,---,0.00,VWS V14.01,2013-09-21 22:53:00,
2013-09-21 15:58:00,62.1,45.7,29.15,SW,230,7.8,7.8,55,0.00,,---,0.00,VWS V14.01,2013-09-21 22:58:00,
2013-09-21 16:03:00,61.5,44.7,29.15,WSW,254,8.3,9.2,54,0.00,,---,0.00,VWS V14.01,2013-09-21 23:03:00,
2013-09-21 16:08:00,61.7,46.3,29.15,WSW,248,10.1,10.1,57,0.00,,---,0.00,VWS V14.01,2013-09-21 23:08:00,
2013-09-21 16:13:00,62.6,47.6,29.15,SW,227,7.8,8.7,58,0.00,,---,0.00,VWS V14.01,2013-09-21 23:13:00,
2013-09-21 16:18:00,62.6,45.2,29.15,SSW,205,9.6,10.5,53,0.00,,---,0.00,VWS V14.01,2013-09-21 23:18:00,
2013-09-21 16:23:00,63.1,43.7,29.15,SSW,196,6.7,7.4,49,0.00,,---,0.00,VWS V14.01,2013-09-21 23:23:00,
2013-09-21 16:28:00,63.0,43.0,29.15,SW,234,7.8,7.8,48,0.00,,---,0.00,VWS V14.01,2013-09-21 23:28:00,
2013-09-21 16:33:00,63.1,40.9,29.15,SSW,212,9.6,11.6,44,0.00,,---,0.00,VWS V14.01,2013-09-21 23:33:00,
2013-09-21 16:38:00,63.3,41.6,29.15,SW,236,8.7,9.6,45,0.00,,---,0.00,VWS V14.01,2013-09-21 23:38:00,
2013-09-21 16:43:00,63.0,41.3,29.12,WSW,242,10.5,12.5,45,0.00,,---,0.00,VWS V14.01,2013-09-21 23:43:00,
2013-09-21 16:48:00,63.3,39.9,29.12,WSW,243,12.1,12.1,42,0.00,,---,0.00,VWS V14.01,2013-09-21 23:48:00,
2013-09-21 16:54:00,63.0,37.6,29.12,WSW,245,15.9,16.8,39,0.00,,---,0.00,VWS V14.01,2013-09-21 23:54:00,
2013-09-21 16:59:00,64.0,34.4,29.12,WSW,255,8.3,19.0,33,0.00,,---,0.00,VWS V14.01,2013-09-21 23:59:00,
2013-09-21 17:04:00,64.4,33.9,29.12,West,273,11.6,13.0,32,0.00,,---,0.00,VWS V14.01,2013-09-22 00:04:00,
2013-09-21 17:09:00,64.4,33.9,29.12,West,266,15.4,15.4,32,0.00,,---,0.00,VWS V14.01,2013-09-22 00:09:00,
2013-09-21 17:14:00,64.4,30.6,29.15,West,259,15.4,15.4,28,0.00,,---,0.00,VWS V14.01,2013-09-22 00:14:00,
2013-09-21 17:19:00,64.6,30.8,29.15,West,264,15.2,15.2,28,0.00,,---,0.00,VWS V14.01,2013-09-22 00:19:00,
2013-09-21 17:25:00,64.4,29.7,29.15,West,269,7.8,15.2,27,0.00,,---,0.00,VWS V14.01,2013-09-22 00:25:00,
2013-09-21 17:30:00,64.2,29.6,29.15,West,281,12.5,12.5,27,0.00,,---,0.00,VWS V14.01,2013-09-22 00:30:00,
2013-09-21 17:35:00,63.5,29.0,29.15,WNW,286,12.5,13.0,27,0.00,,---,0.00,VWS V14.01,2013-09-22 00:35:00,
2013-09-21 17:40:00,63.3,30.5,29.15,West,270,10.5,12.1,29,0.00,,---,0.00,VWS V14.01,2013-09-22 00:40:00,
2013-09-21 17:45:00,63.9,31.9,29.15,West,278,7.4,7.4,30,0.00,,---,0.00,VWS V14.01,2013-09-22 00:45:00,
2013-09-21 17:50:00,64.2,32.2,29.15,West,273,12.1,12.1,30,0.00,,---,0.00,VWS V14.01,2013-09-22 00:50:00,
2013-09-21 17:55:00,63.9,31.0,29.15,West,275,12.5,12.5,29,0.00,,---,0.00,VWS V14.01,2013-09-22 00:55:00,
2013-09-21 18:00:00,63.7,31.7,29.15,West,268,8.7,11.0,30,0.00,,---,0.00,VWS V14.01,2013-09-22 01:00:00,
2013-09-21 18:06:00,63.5,33.1,29.15,West,280,8.7,10.1,32,0.00,,---,0.00,VWS V14.01,2013-09-22 01:06:00,
2013-09-21 18:12:00,63.5,33.1,29.15,WNW,284,11.2,11.2,32,0.00,,---,0.00,VWS V14.01,2013-09-22 01:12:00,
2013-09-21 18:17:00,62.4,32.2,29.15,West,280,8.3,9.2,32,0.00,,---,0.00,VWS V14.01,2013-09-22 01:17:00,
2013-09-21 18:22:00,62.1,32.6,29.15,West,280,8.7,8.7,33,0.00,,---,0.00,VWS V14.01,2013-09-22 01:22:00,
2013-09-21 18:27:00,61.9,33.2,29.15,West,269,7.4,8.3,34,0.00,,---,0.00,VWS V14.01,2013-09-22 01:27:00,
2013-09-21 18:32:00,61.9,33.2,29.15,WSW,256,8.3,9.6,34,0.00,,---,0.00,VWS V14.01,2013-09-22 01:32:00,
2013-09-21 18:37:00,61.3,32.8,29.15,West,265,11.6,11.6,34,0.00,,---,0.00,VWS V14.01,2013-09-22 01:37:00,
2013-09-21 18:42:00,61.2,32.6,29.15,West,262,10.5,14.3,34,0.00,,---,0.00,VWS V14.01,2013-09-22 01:42:00,
2013-09-21 18:47:00,61.2,32.6,29.15,West,273,8.3,10.5,34,0.00,,---,0.00,VWS V14.01,2013-09-22 01:47:00,
2013-09-21 18:52:00,60.8,32.3,29.15,West,281,7.8,7.8,34,0.00,,---,0.00,VWS V14.01,2013-09-22 01:52:00,
2013-09-21 18:57:00,60.6,32.1,29.15,West,259,7.4,8.7,34,0.00,,---,0.00,VWS V14.01,2013-09-22 01:57:00,
2013-09-21 19:02:00,60.1,32.4,29.15,West,262,8.3,8.3,35,0.00,,---,0.00,VWS V14.01,2013-09-22 02:02:00,
2013-09-21 19:07:00,60.1,33.1,29.15,West,265,7.8,10.1,36,0.00,,---,0.00,VWS V14.01,2013-09-22 02:07:00,
2013-09-21 19:12:00,59.7,32.7,29.15,West,264,8.3,10.1,36,0.00,,---,0.00,VWS V14.01,2013-09-22 02:12:00,
2013-09-21 19:17:00,59.7,33.4,29.15,WNW,284,6.9,6.9,37,0.00,,---,0.00,VWS V14.01,2013-09-22 02:17:00,
2013-09-21 19:22:00,59.7,34.1,29.15,West,274,5.8,5.8,38,0.00,,---,0.00,VWS V14.01,2013-09-22 02:22:00,
2013-09-21 19:27:00,59.5,34.6,29.15,West,259,6.3,7.4,39,0.00,,---,0.00,VWS V14.01,2013-09-22 02:27:00,
2013-09-21 19:32:00,59.4,35.7,29.15,West,259,7.4,8.3,41,0.00,,---,0.00,VWS V14.01,2013-09-22 02:32:00,
2013-09-21 19:37:00,59.4,36.3,29.15,WSW,248,7.4,7.4,42,0.00,,---,0.00,VWS V14.01,2013-09-22 02:37:00,
2013-09-21 19:42:00,59.4,36.9,29.15,SW,236,6.9,9.6,43,0.00,,---,0.00,VWS V14.01,2013-09-22 02:42:00,
2013-09-21 19:47:00,59.0,36.6,29.15,WSW,245,11.2,11.2,43,0.00,,---,0.00,VWS V14.01,2013-09-22 02:47:00,
2013-09-21 19:52:00,59.0,35.3,29.15,West,269,6.9,8.3,41,0.00,,---,0.00,VWS V14.01,2013-09-22 02:52:00,
2013-09-21 19:57:00,58.8,34.6,29.18,West,268,6.3,7.8,40,0.00,,---,0.00,VWS V14.01,2013-09-22 02:57:00,
2013-09-21 20:02:00,58.8,35.2,29.18,WSW,243,6.9,7.4,41,0.00,,---,0.00,VWS V14.01,2013-09-22 03:02:00,
2013-09-21 20:07:00,58.8,35.2,29.18,WSW,242,9.6,9.6,41,0.00,,---,0.00,VWS V14.01,2013-09-22 03:07:00,
2013-09-21 20:12:00,58.8,35.2,29.18,WSW,250,9.6,9.6,41,0.00,,---,0.00,VWS V14.01,2013-09-22 03:12:00,
2013-09-21 20:17:00,58.8,35.8,29.18,WSW,241,7.8,7.8,42,0.00,,---,0.00,VWS V14.01,2013-09-22 03:17:00,
2013-09-21 20:22:00,58.5,36.7,29.18,WSW,249,5.8,6.7,44,0.00,,---,0.00,VWS V14.01,2013-09-22 03:22:00,
2013-09-21 20:27:00,58.8,35.8,29.18,WSW,243,13.9,13.9,42,0.00,,---,0.00,VWS V14.01,2013-09-22 03:27:00,
2013-09-21 20:32:00,58.8,35.2,29.18,SW,230,13.4,13.4,41,0.00,,---,0.00,VWS V14.01,2013-09-22 03:32:00,
2013-09-21 20:38:00,59.0,34.1,29.18,WSW,254,11.6,11.6,39,0.00,,---,0.00,VWS V14.01,2013-09-22 03:38:00,
2013-09-21 20:44:00,59.0,34.7,29.18,West,259,7.4,7.4,40,0.00,,---,0.00,VWS V14.01,2013-09-22 03:44:00,
2013-09-21 20:49:00,59.0,34.7,29.18,SW,236,8.3,9.2,40,0.00,,---,0.00,VWS V14.01,2013-09-22 03:49:00,
2013-09-21 20:54:00,59.0,34.7,29.18,SW,229,7.8,7.8,40,0.00,,---,0.00,VWS V14.01,2013-09-22 03:54:00,
2013-09-21 20:59:00,59.0,34.1,29.18,SW,232,8.7,8.7,39,0.00,,---,0.00,VWS V14.01,2013-09-22 03:59:00,
2013-09-21 21:01:00,58.8,33.9,29.18,WSW,240,7.8,8.7,39,0.00,,---,0.00,VWS V14.01,2013-09-22 04:01:00,
2013-09-21 21:02:00,58.8,33.9,29.18,SW,235,8.7,8.7,39,0.00,,---,0.00,VWS V14.01,2013-09-22 04:02:00,
2013-09-21 21:04:00,58.8,33.9,29.18,WSW,243,5.8,8.3,39,0.00,,---,0.00,VWS V14.01,2013-09-22 04:04:00,
2013-09-21 21:09:00,58.5,34.2,29.18,WSW,243,6.7,8.3,40,0.00,,---,0.00,VWS V14.01,2013-09-22 04:09:00,
2013-09-21 21:10:00,58.5,34.9,29.18,SW,233,8.7,8.7,41,0.00,,---,0.00,VWS V14.01,2013-09-22 04:10:00,
2013-09-21 21:15:00,58.3,35.3,29.18,WSW,240,9.6,9.6,42,0.00,,---,0.00,VWS V14.01,2013-09-22 04:15:00,
2013-09-21 21:20:00,58.6,35.0,29.18,SW,223,6.3,9.2,41,0.00,,---,0.00,VWS V14.01,2013-09-22 04:20:00,
2013-09-21 21:25:00,58.6,35.0,29.18,SW,219,5.4,7.4,41,0.00,,---,0.00,VWS V14.01,2013-09-22 04:25:00,
2013-09-21 21:30:00,58.5,34.9,29.18,SW,219,6.7,6.9,41,0.00,,---,0.00,VWS V14.01,2013-09-22 04:30:00,
2013-09-21 21:35:00,58.5,34.9,29.18,WSW,239,7.8,7.8,41,0.00,,---,0.00,VWS V14.01,2013-09-22 04:35:00,
2013-09-21 21:40:00,58.5,35.5,29.21,SSW,206,6.7,6.7,42,0.00,,---,0.00,VWS V14.01,2013-09-22 04:40:00,
2013-09-21 21:45:00,58.6,36.2,29.21,SW,235,7.4,7.4,43,0.00,,---,0.00,VWS V14.01,2013-09-22 04:45:00,
2013-09-21 21:50:00,58.5,36.7,29.21,WSW,258,6.9,9.6,44,0.00,,---,0.00,VWS V14.01,2013-09-22 04:50:00,
2013-09-21 21:55:00,58.6,36.8,29.21,WSW,241,7.8,9.2,44,0.00,,---,0.00,VWS V14.01,2013-09-22 04:55:00,
2013-09-21 22:00:00,58.5,37.2,29.21,SW,236,11.6,11.6,45,0.00,,---,0.00,VWS V14.01,2013-09-22 05:00:00,
2013-09-21 22:06:00,58.6,36.8,29.21,WSW,246,7.8,9.2,44,0.00,,---,0.00,VWS V14.01,2013-09-22 05:06:00,
2013-09-21 22:12:00,58.3,37.0,29.21,SW,230,4.5,6.9,45,0.00,,---,0.00,VWS V14.01,2013-09-22 05:12:00,
2013-09-21 22:17:00,58.3,37.6,29.21,WSW,247,5.4,5.8,46,0.00,,---,0.00,VWS V14.01,2013-09-22 05:17:00,
2013-09-21 22:22:00,58.1,36.3,29.21,SSW,193,4.5,4.9,44,0.00,,---,0.00,VWS V14.01,2013-09-22 05:22:00,
2013-09-21 22:27:00,58.1,36.9,29.21,South,188,4.0,4.0,45,0.00,,---,0.00,VWS V14.01,2013-09-22 05:27:00,
2013-09-21 22:32:00,57.9,37.3,29.21,SSW,209,3.6,4.0,46,0.00,,---,0.00,VWS V14.01,2013-09-22 05:32:00,
2013-09-21 22:37:00,57.9,37.8,29.21,SSW,203,4.0,4.0,47,0.00,,---,0.00,VWS V14.01,2013-09-22 05:37:00,
2013-09-21 22:42:00,57.7,38.2,29.21,SSW,207,4.0,4.5,48,0.00,,---,0.00,VWS V14.01,2013-09-22 05:42:00,
2013-09-21 22:47:00,57.7,38.7,29.21,South,188,4.5,4.5,49,0.00,,---,0.00,VWS V14.01,2013-09-22 05:47:00,
2013-09-21 22:52:00,57.7,38.7,29.21,SSW,213,4.5,4.5,49,0.00,,---,0.00,VWS V14.01,2013-09-22 05:52:00,
2013-09-21 22:57:00,57.9,38.9,29.21,SSW,204,4.0,4.9,49,0.00,,---,0.00,VWS V14.01,2013-09-22 05:57:00,
2013-09-21 23:02:00,57.6,39.1,29.21,SSW,208,4.5,4.5,50,0.00,,---,0.00,VWS V14.01,2013-09-22 06:02:00,
2013-09-21 23:07:00,57.6,39.6,29.21,SSE,154,4.0,4.5,51,0.00,,---,0.00,VWS V14.01,2013-09-22 06:07:00,
2013-09-21 23:12:00,57.6,39.6,29.21,SSE,166,4.9,5.4,51,0.00,,---,0.00,VWS V14.01,2013-09-22 06:12:00,
2013-09-21 23:17:00,57.4,39.9,29.21,South,178,5.4,5.4,52,0.00,,---,0.00,VWS V14.01,2013-09-22 06:17:00,
2013-09-21 23:22:00,57.4,40.4,29.21,South,176,4.0,4.9,53,0.00,,---,0.00,VWS V14.01,2013-09-22 06:22:00,
2013-09-21 23:27:00,57.4,40.9,29.21,South,187,4.5,6.3,54,0.00,,---,0.00,VWS V14.01,2013-09-22 06:27:00,
2013-09-21 23:32:00,57.2,40.7,29.21,South,177,4.5,4.5,54,0.00,,---,0.00,VWS V14.01,2013-09-22 06:32:00,
2013-09-21 23:37:00,57.2,40.7,29.21,South,174,4.5,4.9,54,0.00,,---,0.00,VWS V14.01,2013-09-22 06:37:00,
2013-09-21 23:42:00,57.2,41.7,29.21,SSW,196,3.6,3.6,56,0.00,,---,0.00,VWS V14.01,2013-09-22 06:42:00,
2013-09-21 23:47:00,57.2,41.7,29.21,SSW,212,5.4,6.3,56,0.00,,---,0.00,VWS V14.01,2013-09-22 06:47:00,
2013-09-21 23:52:00,57.4,42.3,29.21,SW,224,6.9,6.9,57,0.00,,---,0.00,VWS V14.01,2013-09-22 06:52:00,
2013-09-21 23:57:00,57.6,42.0,29.21,SW,229,7.4,8.3,56,0.00,,---,0.00,VWS V14.01,2013-09-22 06:57:00,